RJTS(METAR)
03/23 15:00
METAR RJTS 230600Z 03013KT 9999 FEW050 SCT070 BKN160 08/M02 Q1013
RMK 1CU050 4AC070 5AC160 A2992=
戻る
トップページへ戻る
IMOC Co,.Ltd.